sensor_id;sensor_type;location;lat;lon;timestamp;pressure;altitude;pressure_sealevel;temperature;humidity
73516;BME280;61763;51.416;5.442;2022-12-18T00:00:46;102788.34;;;-7.76;100.00
73516;BME280;61763;51.416;5.442;2022-12-18T00:03:13;102783.47;;;-7.84;100.00
73516;BME280;61763;51.416;5.442;2022-12-18T00:06:08;102789.84;;;-7.96;100.00
73516;BME280;61763;51.416;5.442;2022-12-18T00:08:34;102786.94;;;-8.00;100.00
73516;BME280;61763;51.416;5.442;2022-12-18T00:11:07;102776.59;;;-7.82;100.00
73516;BME280;61763;51.416;5.442;2022-12-18T00:13:34;102780.03;;;-7.83;100.00
73516;BME280;61763;51.416;5.442;2022-12-18T00:16:04;102782.66;;;-7.83;100.00
73516;BME280;61763;51.416;5.442;2022-12-18T00:18:30;102784.78;;;-7.76;100.00
73516;BME280;61763;51.416;5.442;2022-12-18T00:20:59;102789.53;;;-7.85;100.00
73516;BME280;61763;51.416;5.442;2022-12-18T00:23:25;102784.50;;;-7.97;100.00
73516;BME280;61763;51.416;5.442;2022-12-18T00:25:52;102769.19;;;-7.89;100.00
73516;BME280;61763;51.416;5.442;2022-12-18T00:28:17;102766.75;;;-7.55;100.00
73516;BME280;61763;51.416;5.442;2022-12-18T00:30:43;102752.31;;;-7.47;100.00
73516;BME280;61763;51.416;5.442;2022-12-18T00:33:08;102752.63;;;-7.41;100.00
73516;BME280;61763;51.416;5.442;2022-12-18T00:35:33;102754.53;;;-7.38;100.00
73516;BME280;61763;51.416;5.442;2022-12-18T00:37:59;102744.59;;;-7.60;100.00
73516;BME280;61763;51.416;5.442;2022-12-18T00:40:24;102750.25;;;-7.52;100.00
73516;BME280;61763;51.416;5.442;2022-12-18T00:42:49;102750.66;;;-7.61;100.00
73516;BME280;61763;51.416;5.442;2022-12-18T00:45:21;102751.34;;;-7.80;100.00
73516;BME280;61763;51.416;5.442;2022-12-18T00:47:46;102750.81;;;-7.75;100.00
73516;BME280;61763;51.416;5.442;2022-12-18T00:50:12;102748.78;;;-7.64;100.00
73516;BME280;61763;51.416;5.442;2022-12-18T00:52:37;102753.25;;;-7.78;100.00
73516;BME280;61763;51.416;5.442;2022-12-18T00:55:03;102755.38;;;-7.87;100.00
73516;BME280;61763;51.416;5.442;2022-12-18T00:57:28;102740.84;;;-7.97;100.00
73516;BME280;61763;51.416;5.442;2022-12-18T00:59:54;102747.19;;;-7.93;100.00
73516;BME280;61763;51.416;5.442;2022-12-18T01:02:19;102738.31;;;-7.95;100.00
73516;BME280;61763;51.416;5.442;2022-12-18T01:04:45;102750.44;;;-7.97;100.00
73516;BME280;61763;51.416;5.442;2022-12-18T01:07:10;102758.03;;;-8.02;100.00
73516;BME280;61763;51.416;5.442;2022-12-18T01:09:36;102760.31;;;-8.08;100.00
73516;BME280;61763;51.416;5.442;2022-12-18T01:12:02;102764.63;;;-8.08;100.00
73516;BME280;61763;51.416;5.442;2022-12-18T01:14:27;102768.47;;;-8.18;100.00
73516;BME280;61763;51.416;5.442;2022-12-18T01:16:53;102763.13;;;-8.05;100.00
73516;BME280;61763;51.416;5.442;2022-12-18T01:19:18;102763.41;;;-7.84;100.00
73516;BME280;61763;51.416;5.442;2022-12-18T01:21:43;102772.63;;;-7.76;100.00
73516;BME280;61763;51.416;5.442;2022-12-18T01:24:11;102766.53;;;-7.75;100.00
73516;BME280;61763;51.416;5.442;2022-12-18T01:26:37;102763.44;;;-7.67;100.00
73516;BME280;61763;51.416;5.442;2022-12-18T01:29:02;102767.56;;;-7.56;100.00
73516;BME280;61763;51.416;5.442;2022-12-18T01:31:31;102768.53;;;-7.54;100.00
73516;BME280;61763;51.416;5.442;2022-12-18T01:34:00;102765.25;;;-7.66;100.00
73516;BME280;61763;51.416;5.442;2022-12-18T01:36:34;102770.72;;;-7.78;100.00
73516;BME280;61763;51.416;5.442;2022-12-18T01:39:03;102762.84;;;-7.78;100.00
73516;BME280;61763;51.416;5.442;2022-12-18T01:41:31;102761.75;;;-7.82;100.00
73516;BME280;61763;51.416;5.442;2022-12-18T01:44:54;102762.59;;;-7.83;100.00
73516;BME280;61763;51.416;5.442;2022-12-18T01:49:53;102759.56;;;-8.05;100.00
73516;BME280;61763;51.416;5.442;2022-12-18T01:52:20;102756.44;;;-7.83;100.00
73516;BME280;61763;51.416;5.442;2022-12-18T01:54:47;102758.00;;;-7.87;100.00
73516;BME280;61763;51.416;5.442;2022-12-18T01:57:13;102753.31;;;-7.93;100.00
73516;BME280;61763;51.416;5.442;2022-12-18T01:59:41;102757.59;;;-7.78;100.00
73516;BME280;61763;51.416;5.442;2022-12-18T02:02:08;102752.13;;;-7.83;100.00
73516;BME280;61763;51.416;5.442;2022-12-18T02:04:33;102753.22;;;-7.94;100.00
73516;BME280;61763;51.416;5.442;2022-12-18T02:07:37;102751.31;;;-7.97;100.00
73516;BME280;61763;51.416;5.442;2022-12-18T02:13:12;102750.38;;;-8.14;100.00
73516;BME280;61763;51.416;5.442;2022-12-18T02:18:37;102745.63;;;-8.21;100.00
73516;BME280;61763;51.416;5.442;2022-12-18T02:21:13;102745.78;;;-8.18;100.00
73516;BME280;61763;51.416;5.442;2022-12-18T02:23:56;102740.81;;;-8.13;100.00
73516;BME280;61763;51.416;5.442;2022-12-18T02:26:35;102757.63;;;-8.24;100.00
73516;BME280;61763;51.416;5.442;2022-12-18T02:29:08;102747.94;;;-8.11;100.00
73516;BME280;61763;51.416;5.442;2022-12-18T02:31:40;102753.22;;;-8.25;100.00
73516;BME280;61763;51.416;5.442;2022-12-18T02:34:08;102749.47;;;-8.14;100.00
73516;BME280;61763;51.416;5.442;2022-12-18T02:36:36;102741.44;;;-8.17;100.00
73516;BME280;61763;51.416;5.442;2022-12-18T02:39:05;102732.34;;;-8.24;100.00
73516;BME280;61763;51.416;5.442;2022-12-18T02:41:32;102736.31;;;-8.31;100.00
73516;BME280;61763;51.416;5.442;2022-12-18T02:44:00;102730.16;;;-8.16;100.00
73516;BME280;61763;51.416;5.442;2022-12-18T02:46:33;102736.16;;;-8.02;100.00
73516;BME280;61763;51.416;5.442;2022-12-18T02:52:14;102714.63;;;-7.97;100.00
73516;BME280;61763;51.416;5.442;2022-12-18T03:00:19;102715.56;;;-7.96;100.00
73516;BME280;61763;51.416;5.442;2022-12-18T03:06:27;102718.34;;;-7.93;100.00
73516;BME280;61763;51.416;5.442;2022-12-18T03:09:06;102712.69;;;-8.16;100.00
73516;BME280;61763;51.416;5.442;2022-12-18T03:11:34;102706.69;;;-7.98;100.00
73516;BME280;61763;51.416;5.442;2022-12-18T03:14:22;102704.53;;;-7.90;100.00
73516;BME280;61763;51.416;5.442;2022-12-18T03:16:51;102703.72;;;-8.04;100.00
73516;BME280;61763;51.416;5.442;2022-12-18T03:19:22;102697.16;;;-8.13;100.00
73516;BME280;61763;51.416;5.442;2022-12-18T03:21:51;102696.97;;;-8.01;100.00
73516;BME280;61763;51.416;5.442;2022-12-18T03:24:21;102696.75;;;-8.04;100.00
73516;BME280;61763;51.416;5.442;2022-12-18T03:26:51;102701.19;;;-8.03;100.00
73516;BME280;61763;51.416;5.442;2022-12-18T03:29:24;102692.06;;;-7.95;100.00
73516;BME280;61763;51.416;5.442;2022-12-18T03:31:54;102700.22;;;-8.05;100.00
73516;BME280;61763;51.416;5.442;2022-12-18T03:34:27;102703.91;;;-8.01;100.00
73516;BME280;61763;51.416;5.442;2022-12-18T03:36:54;102701.84;;;-8.07;100.00
73516;BME280;61763;51.416;5.442;2022-12-18T03:39:20;102704.84;;;-8.16;100.00
73516;BME280;61763;51.416;5.442;2022-12-18T03:41:55;102709.22;;;-8.00;100.00
73516;BME280;61763;51.416;5.442;2022-12-18T03:44:34;102707.75;;;-8.11;100.00
73516;BME280;61763;51.416;5.442;2022-12-18T03:47:22;102708.56;;;-8.12;100.00
73516;BME280;61763;51.416;5.442;2022-12-18T03:50:13;102705.59;;;-8.18;100.00
73516;BME280;61763;51.416;5.442;2022-12-18T03:52:50;102703.47;;;-8.09;100.00
73516;BME280;61763;51.416;5.442;2022-12-18T03:55:20;102696.69;;;-8.05;100.00
73516;BME280;61763;51.416;5.442;2022-12-18T03:57:48;102691.72;;;-8.01;100.00
73516;BME280;61763;51.416;5.442;2022-12-18T04:00:16;102688.09;;;-8.03;100.00
73516;BME280;61763;51.416;5.442;2022-12-18T04:02:52;102678.94;;;-8.11;100.00
73516;BME280;61763;51.416;5.442;2022-12-18T04:05:20;102667.34;;;-8.15;100.00
73516;BME280;61763;51.416;5.442;2022-12-18T04:07:48;102663.06;;;-8.29;100.00
73516;BME280;61763;51.416;5.442;2022-12-18T04:10:16;102661.31;;;-8.14;100.00
73516;BME280;61763;51.416;5.442;2022-12-18T04:12:43;102654.56;;;-8.25;100.00
73516;BME280;61763;51.416;5.442;2022-12-18T04:15:10;102660.44;;;-8.29;100.00
73516;BME280;61763;51.416;5.442;2022-12-18T04:17:35;102648.53;;;-8.07;100.00
73516;BME280;61763;51.416;5.442;2022-12-18T04:20:01;102644.25;;;-8.22;100.00
73516;BME280;61763;51.416;5.442;2022-12-18T04:22:27;102639.00;;;-8.22;100.00
73516;BME280;61763;51.416;5.442;2022-12-18T04:24:52;102640.03;;;-8.20;100.00
73516;BME280;61763;51.416;5.442;2022-12-18T04:27:17;102645.50;;;-8.15;100.00
73516;BME280;61763;51.416;5.442;2022-12-18T04:29:43;102657.34;;;-8.22;100.00
73516;BME280;61763;51.416;5.442;2022-12-18T04:32:08;102651.72;;;-8.13;100.00
73516;BME280;61763;51.416;5.442;2022-12-18T04:34:34;102656.00;;;-8.15;100.00
73516;BME280;61763;51.416;5.442;2022-12-18T04:36:59;102661.53;;;-8.25;100.00
73516;BME280;61763;51.416;5.442;2022-12-18T04:39:25;102660.34;;;-8.31;100.00
73516;BME280;61763;51.416;5.442;2022-12-18T04:41:50;102654.66;;;-8.23;100.00
73516;BME280;61763;51.416;5.442;2022-12-18T04:44:15;102661.16;;;-8.17;100.00
73516;BME280;61763;51.416;5.442;2022-12-18T04:46:41;102674.81;;;-8.06;100.00
73516;BME280;61763;51.416;5.442;2022-12-18T04:49:06;102675.13;;;-8.16;100.00
73516;BME280;61763;51.416;5.442;2022-12-18T04:51:32;102681.53;;;-8.42;100.00
73516;BME280;61763;51.416;5.442;2022-12-18T04:53:57;102682.47;;;-8.57;100.00
73516;BME280;61763;51.416;5.442;2022-12-18T04:56:23;102685.28;;;-8.69;100.00
73516;BME280;61763;51.416;5.442;2022-12-18T04:58:49;102693.16;;;-8.84;100.00
73516;BME280;61763;51.416;5.442;2022-12-18T05:01:16;102686.69;;;-8.90;100.00
73516;BME280;61763;51.416;5.442;2022-12-18T05:03:42;102685.84;;;-9.04;100.00
73516;BME280;61763;51.416;5.442;2022-12-18T05:06:09;102688.81;;;-9.13;100.00
73516;BME280;61763;51.416;5.442;2022-12-18T05:08:34;102680.44;;;-9.07;100.00
73516;BME280;61763;51.416;5.442;2022-12-18T05:11:06;102678.47;;;-8.82;100.00
73516;BME280;61763;51.416;5.442;2022-12-18T05:13:32;102689.38;;;-8.89;100.00
73516;BME280;61763;51.416;5.442;2022-12-18T05:15:58;102685.88;;;-8.74;100.00
73516;BME280;61763;51.416;5.442;2022-12-18T05:18:24;102689.63;;;-8.69;100.00
73516;BME280;61763;51.416;5.442;2022-12-18T05:20:51;102693.91;;;-8.40;100.00
73516;BME280;61763;51.416;5.442;2022-12-18T05:23:16;102684.09;;;-8.28;100.00
73516;BME280;61763;51.416;5.442;2022-12-18T05:25:50;102687.47;;;-8.30;100.00
73516;BME280;61763;51.416;5.442;2022-12-18T05:28:15;102679.22;;;-8.21;100.00
73516;BME280;61763;51.416;5.442;2022-12-18T05:30:41;102684.16;;;-8.42;100.00
73516;BME280;61763;51.416;5.442;2022-12-18T05:33:07;102673.84;;;-8.39;100.00
73516;BME280;61763;51.416;5.442;2022-12-18T05:35:34;102678.34;;;-8.37;100.00
73516;BME280;61763;51.416;5.442;2022-12-18T05:37:59;102679.00;;;-8.41;100.00
73516;BME280;61763;51.416;5.442;2022-12-18T05:40:25;102670.25;;;-8.41;100.00
73516;BME280;61763;51.416;5.442;2022-12-18T05:42:50;102656.59;;;-8.36;100.00
73516;BME280;61763;51.416;5.442;2022-12-18T05:45:16;102656.94;;;-8.30;100.00
73516;BME280;61763;51.416;5.442;2022-12-18T05:47:41;102664.25;;;-8.07;100.00
73516;BME280;61763;51.416;5.442;2022-12-18T05:50:07;102663.59;;;-8.20;100.00
73516;BME280;61763;51.416;5.442;2022-12-18T05:52:32;102662.13;;;-8.15;100.00
73516;BME280;61763;51.416;5.442;2022-12-18T05:54:58;102665.63;;;-8.14;100.00
73516;BME280;61763;51.416;5.442;2022-12-18T05:57:24;102656.97;;;-8.13;100.00
73516;BME280;61763;51.416;5.442;2022-12-18T05:59:49;102642.44;;;-8.23;100.00
73516;BME280;61763;51.416;5.442;2022-12-18T06:02:14;102662.34;;;-8.27;100.00
73516;BME280;61763;51.416;5.442;2022-12-18T06:04:40;102655.03;;;-8.32;100.00
73516;BME280;61763;51.416;5.442;2022-12-18T06:07:05;102647.81;;;-8.21;100.00
73516;BME280;61763;51.416;5.442;2022-12-18T06:09:30;102653.97;;;-8.36;100.00
73516;BME280;61763;51.416;5.442;2022-12-18T06:11:57;102645.66;;;-8.29;100.00
73516;BME280;61763;51.416;5.442;2022-12-18T06:14:22;102665.34;;;-8.35;100.00
73516;BME280;61763;51.416;5.442;2022-12-18T06:16:50;102663.06;;;-8.46;100.00
73516;BME280;61763;51.416;5.442;2022-12-18T06:19:16;102669.13;;;-8.61;100.00
73516;BME280;61763;51.416;5.442;2022-12-18T06:21:42;102671.47;;;-8.51;100.00
73516;BME280;61763;51.416;5.442;2022-12-18T06:24:07;102666.34;;;-8.65;100.00
73516;BME280;61763;51.416;5.442;2022-12-18T06:26:33;102664.81;;;-8.76;100.00
73516;BME280;61763;51.416;5.442;2022-12-18T06:28:58;102668.81;;;-8.83;100.00
73516;BME280;61763;51.416;5.442;2022-12-18T06:31:24;102662.13;;;-8.92;100.00
73516;BME280;61763;51.416;5.442;2022-12-18T06:33:50;102659.31;;;-8.95;100.00
73516;BME280;61763;51.416;5.442;2022-12-18T06:36:15;102655.47;;;-9.02;100.00
73516;BME280;61763;51.416;5.442;2022-12-18T06:38:43;102661.50;;;-9.03;100.00
73516;BME280;61763;51.416;5.442;2022-12-18T06:41:14;102651.47;;;-8.81;100.00
73516;BME280;61763;51.416;5.442;2022-12-18T06:43:40;102654.91;;;-8.96;100.00
73516;BME280;61763;51.416;5.442;2022-12-18T06:46:06;102656.53;;;-8.99;100.00
73516;BME280;61763;51.416;5.442;2022-12-18T06:48:32;102653.88;;;-8.69;100.00
73516;BME280;61763;51.416;5.442;2022-12-18T06:50:57;102644.16;;;-8.71;100.00
73516;BME280;61763;51.416;5.442;2022-12-18T06:53:23;102653.38;;;-8.47;100.00
73516;BME280;61763;51.416;5.442;2022-12-18T06:55:48;102656.84;;;-8.48;100.00
73516;BME280;61763;51.416;5.442;2022-12-18T06:58:14;102649.28;;;-8.41;100.00
73516;BME280;61763;51.416;5.442;2022-12-18T07:00:39;102653.63;;;-8.42;100.00
73516;BME280;61763;51.416;5.442;2022-12-18T07:03:05;102651.91;;;-8.41;100.00
73516;BME280;61763;51.416;5.442;2022-12-18T07:05:30;102658.00;;;-8.26;100.00
73516;BME280;61763;51.416;5.442;2022-12-18T07:07:56;102651.53;;;-8.33;100.00
73516;BME280;61763;51.416;5.442;2022-12-18T07:10:21;102638.94;;;-8.23;100.00
73516;BME280;61763;51.416;5.442;2022-12-18T07:12:47;102627.50;;;-8.09;100.00
73516;BME280;61763;51.416;5.442;2022-12-18T07:15:13;102627.16;;;-8.15;100.00
73516;BME280;61763;51.416;5.442;2022-12-18T07:17:39;102631.41;;;-8.17;100.00
73516;BME280;61763;51.416;5.442;2022-12-18T07:20:04;102628.94;;;-8.31;100.00
73516;BME280;61763;51.416;5.442;2022-12-18T07:22:30;102614.56;;;-8.22;100.00
73516;BME280;61763;51.416;5.442;2022-12-18T07:24:55;102598.13;;;-8.35;100.00
73516;BME280;61763;51.416;5.442;2022-12-18T07:27:21;102584.59;;;-8.11;100.00
73516;BME280;61763;51.416;5.442;2022-12-18T07:29:47;102576.81;;;-8.10;100.00
73516;BME280;61763;51.416;5.442;2022-12-18T07:32:12;102573.28;;;-7.94;100.00
73516;BME280;61763;51.416;5.442;2022-12-18T07:34:37;102581.34;;;-7.90;100.00
73516;BME280;61763;51.416;5.442;2022-12-18T07:37:03;102587.06;;;-7.98;100.00
73516;BME280;61763;51.416;5.442;2022-12-18T07:39:28;102587.31;;;-8.10;100.00
73516;BME280;61763;51.416;5.442;2022-12-18T07:41:54;102578.53;;;-7.94;100.00
73516;BME280;61763;51.416;5.442;2022-12-18T07:44:38;102587.16;;;-7.96;100.00
73516;BME280;61763;51.416;5.442;2022-12-18T07:47:04;102568.47;;;-7.86;100.00
73516;BME280;61763;51.416;5.442;2022-12-18T07:49:29;102564.16;;;-7.67;100.00
73516;BME280;61763;51.416;5.442;2022-12-18T07:51:55;102551.94;;;-7.50;100.00
73516;BME280;61763;51.416;5.442;2022-12-18T07:54:22;102556.03;;;-7.55;100.00
73516;BME280;61763;51.416;5.442;2022-12-18T07:56:48;102552.59;;;-7.54;100.00
73516;BME280;61763;51.416;5.442;2022-12-18T07:59:13;102548.16;;;-7.55;100.00
73516;BME280;61763;51.416;5.442;2022-12-18T08:01:38;102544.34;;;-7.62;100.00
73516;BME280;61763;51.416;5.442;2022-12-18T08:04:04;102536.94;;;-7.53;100.00
73516;BME280;61763;51.416;5.442;2022-12-18T08:06:29;102537.16;;;-7.48;100.00
73516;BME280;61763;51.416;5.442;2022-12-18T08:08:55;102545.19;;;-7.45;100.00
73516;BME280;61763;51.416;5.442;2022-12-18T08:11:22;102547.16;;;-7.41;100.00
73516;BME280;61763;51.416;5.442;2022-12-18T08:13:48;102555.03;;;-7.41;100.00
73516;BME280;61763;51.416;5.442;2022-12-18T08:16:13;102554.59;;;-7.32;100.00
73516;BME280;61763;51.416;5.442;2022-12-18T08:18:39;102552.94;;;-7.30;100.00
73516;BME280;61763;51.416;5.442;2022-12-18T08:21:28;102545.47;;;-7.23;100.00
73516;BME280;61763;51.416;5.442;2022-12-18T08:23:55;102555.59;;;-7.12;100.00
73516;BME280;61763;51.416;5.442;2022-12-18T08:26:22;102563.13;;;-7.18;100.00
73516;BME280;61763;51.416;5.442;2022-12-18T08:28:48;102556.19;;;-7.18;100.00
73516;BME280;61763;51.416;5.442;2022-12-18T08:31:14;102556.19;;;-7.18;100.00
73516;BME280;61763;51.416;5.442;2022-12-18T08:33:40;102553.19;;;-7.26;100.00
73516;BME280;61763;51.416;5.442;2022-12-18T08:36:05;102562.25;;;-7.19;100.00
73516;BME280;61763;51.416;5.442;2022-12-18T08:38:32;102567.56;;;-7.17;100.00
73516;BME280;61763;51.416;5.442;2022-12-18T08:41:06;102557.28;;;-7.13;100.00
73516;BME280;61763;51.416;5.442;2022-12-18T08:43:32;102551.44;;;-7.07;100.00
73516;BME280;61763;51.416;5.442;2022-12-18T08:46:16;102541.66;;;-6.93;100.00
73516;BME280;61763;51.416;5.442;2022-12-18T08:48:42;102529.03;;;-6.82;100.00
73516;BME280;61763;51.416;5.442;2022-12-18T08:51:08;102521.00;;;-6.85;100.00
73516;BME280;61763;51.416;5.442;2022-12-18T08:53:37;102535.06;;;-6.65;100.00
73516;BME280;61763;51.416;5.442;2022-12-18T08:56:03;102529.66;;;-6.69;100.00
73516;BME280;61763;51.416;5.442;2022-12-18T08:58:29;102533.44;;;-6.63;100.00
73516;BME280;61763;51.416;5.442;2022-12-18T09:01:00;102527.56;;;-6.58;100.00
73516;BME280;61763;51.416;5.442;2022-12-18T09:03:25;102517.03;;;-6.40;100.00
73516;BME280;61763;51.416;5.442;2022-12-18T09:05:51;102516.28;;;-6.37;100.00
73516;BME280;61763;51.416;5.442;2022-12-18T09:08:16;102523.81;;;-6.25;100.00
73516;BME280;61763;51.416;5.442;2022-12-18T09:10:44;102521.31;;;-6.22;100.00
73516;BME280;61763;51.416;5.442;2022-12-18T09:13:11;102516.59;;;-6.29;100.00
73516;BME280;61763;51.416;5.442;2022-12-18T09:15:43;102535.56;;;-6.17;100.00
73516;BME280;61763;51.416;5.442;2022-12-18T09:18:10;102548.81;;;-5.94;100.00
73516;BME280;61763;51.416;5.442;2022-12-18T09:20:36;102545.25;;;-5.95;100.00
73516;BME280;61763;51.416;5.442;2022-12-18T09:23:02;102545.03;;;-6.01;100.00
73516;BME280;61763;51.416;5.442;2022-12-18T09:25:29;102544.66;;;-5.89;100.00
73516;BME280;61763;51.416;5.442;2022-12-18T09:28:10;102537.75;;;-5.87;100.00
73516;BME280;61763;51.416;5.442;2022-12-18T09:30:40;102541.97;;;-5.70;100.00
73516;BME280;61763;51.416;5.442;2022-12-18T09:33:06;102519.38;;;-5.66;100.00
73516;BME280;61763;51.416;5.442;2022-12-18T09:35:32;102515.00;;;-5.66;100.00
73516;BME280;61763;51.416;5.442;2022-12-18T09:37:57;102506.41;;;-5.61;100.00
73516;BME280;61763;51.416;5.442;2022-12-18T09:40:25;102507.63;;;-5.53;100.00
73516;BME280;61763;51.416;5.442;2022-12-18T09:42:57;102519.50;;;-5.42;100.00
73516;BME280;61763;51.416;5.442;2022-12-18T09:45:24;102523.19;;;-5.38;100.00
73516;BME280;61763;51.416;5.442;2022-12-18T09:47:51;102511.81;;;-5.37;100.00
73516;BME280;61763;51.416;5.442;2022-12-18T09:50:24;102512.25;;;-5.26;100.00
73516;BME280;61763;51.416;5.442;2022-12-18T09:52:54;102500.94;;;-5.03;100.00
73516;BME280;61763;51.416;5.442;2022-12-18T09:55:33;102485.84;;;-5.07;100.00
73516;BME280;61763;51.416;5.442;2022-12-18T10:00:35;102488.00;;;-4.97;100.00
73516;BME280;61763;51.416;5.442;2022-12-18T10:03:08;102490.22;;;-4.85;100.00
73516;BME280;61763;51.416;5.442;2022-12-18T10:08:46;102478.50;;;-4.70;100.00
73516;BME280;61763;51.416;5.442;2022-12-18T10:17:40;102498.66;;;-4.48;100.00
73516;BME280;61763;51.416;5.442;2022-12-18T10:26:19;102493.88;;;-4.12;100.00
73516;BME280;61763;51.416;5.442;2022-12-18T10:28:20;102489.22;;;-4.19;100.00
73516;BME280;61763;51.416;5.442;2022-12-18T10:30:47;102474.28;;;-4.18;100.00
73516;BME280;61763;51.416;5.442;2022-12-18T10:33:16;102470.19;;;-4.10;100.00
73516;BME280;61763;51.416;5.442;2022-12-18T10:35:42;102468.09;;;-3.95;100.00
73516;BME280;61763;51.416;5.442;2022-12-18T10:41:00;102446.25;;;-3.91;100.00
73516;BME280;61763;51.416;5.442;2022-12-18T10:48:33;102433.56;;;-3.77;100.00
73516;BME280;61763;51.416;5.442;2022-12-18T10:50:59;102438.84;;;-3.77;100.00
73516;BME280;61763;51.416;5.442;2022-12-18T10:53:27;102442.84;;;-3.61;100.00
73516;BME280;61763;51.416;5.442;2022-12-18T10:55:54;102431.56;;;-3.57;100.00
73516;BME280;61763;51.416;5.442;2022-12-18T10:58:32;102421.06;;;-3.55;100.00
73516;BME280;61763;51.416;5.442;2022-12-18T11:03:34;102405.19;;;-3.29;100.00
73516;BME280;61763;51.416;5.442;2022-12-18T11:06:19;102399.75;;;-3.34;100.00
73516;BME280;61763;51.416;5.442;2022-12-18T11:09:34;102397.50;;;-3.22;100.00
73516;BME280;61763;51.416;5.442;2022-12-18T11:12:03;102399.97;;;-2.97;100.00
73516;BME280;61763;51.416;5.442;2022-12-18T11:14:34;102404.38;;;-2.98;100.00
73516;BME280;61763;51.416;5.442;2022-12-18T11:17:35;102411.59;;;-2.92;100.00
73516;BME280;61763;51.416;5.442;2022-12-18T11:22:58;102396.81;;;-2.86;100.00
73516;BME280;61763;51.416;5.442;2022-12-18T11:25:24;102395.81;;;-2.91;100.00
73516;BME280;61763;51.416;5.442;2022-12-18T11:28:04;102379.66;;;-2.70;100.00
73516;BME280;61763;51.416;5.442;2022-12-18T11:30:32;102376.09;;;-2.72;99.59
73516;BME280;61763;51.416;5.442;2022-12-18T11:33:20;102368.44;;;-2.62;99.52
73516;BME280;61763;51.416;5.442;2022-12-18T11:35:55;102366.81;;;-2.57;98.94
73516;BME280;61763;51.416;5.442;2022-12-18T11:38:28;102381.81;;;-2.56;98.85
73516;BME280;61763;51.416;5.442;2022-12-18T11:44:24;102378.66;;;-2.43;97.80
73516;BME280;61763;51.416;5.442;2022-12-18T11:46:55;102375.53;;;-2.30;97.73
73516;BME280;61763;51.416;5.442;2022-12-18T11:49:27;102362.56;;;-2.19;97.51
73516;BME280;61763;51.416;5.442;2022-12-18T11:54:31;102364.38;;;-2.18;96.57
73516;BME280;61763;51.416;5.442;2022-12-18T11:57:09;102363.16;;;-2.31;96.11
73516;BME280;61763;51.416;5.442;2022-12-18T12:00:03;102354.56;;;-2.22;96.49
73516;BME280;61763;51.416;5.442;2022-12-18T12:11:36;102342.03;;;-1.96;95.89
73516;BME280;61763;51.416;5.442;2022-12-18T12:14:14;102328.56;;;-2.03;95.58
73516;BME280;61763;51.416;5.442;2022-12-18T12:19:53;102324.56;;;-1.87;94.89
73516;BME280;61763;51.416;5.442;2022-12-18T12:27:37;102323.03;;;-1.78;93.98
73516;BME280;61763;51.416;5.442;2022-12-18T12:38:40;102297.41;;;-1.80;92.89
73516;BME280;61763;51.416;5.442;2022-12-18T12:41:09;102285.84;;;-1.84;94.03
73516;BME280;61763;51.416;5.442;2022-12-18T12:44:01;102290.22;;;-1.84;93.67
73516;BME280;61763;51.416;5.442;2022-12-18T12:46:26;102282.22;;;-1.87;93.59
73516;BME280;61763;51.416;5.442;2022-12-18T12:48:56;102282.16;;;-1.52;92.26
73516;BME280;61763;51.416;5.442;2022-12-18T12:51:30;102278.56;;;-1.56;92.42
73516;BME280;61763;51.416;5.442;2022-12-18T12:53:57;102271.38;;;-1.62;92.46
73516;BME280;61763;51.416;5.442;2022-12-18T12:56:27;102268.00;;;-1.54;91.46
73516;BME280;61763;51.416;5.442;2022-12-18T12:59:24;102266.16;;;-1.57;91.00
73516;BME280;61763;51.416;5.442;2022-12-18T13:02:18;102269.72;;;-1.55;91.16
73516;BME280;61763;51.416;5.442;2022-12-18T13:15:47;102253.97;;;-1.49;90.93
73516;BME280;61763;51.416;5.442;2022-12-18T13:18:17;102244.50;;;-1.39;90.69
73516;BME280;61763;51.416;5.442;2022-12-18T13:20:46;102245.06;;;-1.54;90.90
73516;BME280;61763;51.416;5.442;2022-12-18T13:23:33;102243.16;;;-1.60;90.94
73516;BME280;61763;51.416;5.442;2022-12-18T13:33:43;102231.03;;;-1.50;90.38
73516;BME280;61763;51.416;5.442;2022-12-18T13:36:31;102222.09;;;-1.53;90.79
73516;BME280;61763;51.416;5.442;2022-12-18T13:41:51;102250.41;;;-1.51;91.08
73516;BME280;61763;51.416;5.442;2022-12-18T13:46:51;102230.06;;;-1.53;91.51
73516;BME280;61763;51.416;5.442;2022-12-18T13:52:02;102213.56;;;-1.40;90.24
73516;BME280;61763;51.416;5.442;2022-12-18T13:54:40;102218.81;;;-1.42;90.23
73516;BME280;61763;51.416;5.442;2022-12-18T13:57:35;102220.66;;;-1.39;90.30
73516;BME280;61763;51.416;5.442;2022-12-18T14:02:45;102217.31;;;-1.30;90.24
73516;BME280;61763;51.416;5.442;2022-12-18T14:05:28;102223.41;;;-1.34;90.69
73516;BME280;61763;51.416;5.442;2022-12-18T14:08:00;102219.03;;;-1.32;90.65
73516;BME280;61763;51.416;5.442;2022-12-18T14:10:27;102213.56;;;-1.40;90.40
73516;BME280;61763;51.416;5.442;2022-12-18T14:12:53;102202.97;;;-1.40;91.12
73516;BME280;61763;51.416;5.442;2022-12-18T14:18:02;102215.50;;;-1.31;91.12
73516;BME280;61763;51.416;5.442;2022-12-18T14:20:31;102217.31;;;-1.30;90.93
73516;BME280;61763;51.416;5.442;2022-12-18T14:22:58;102204.88;;;-1.33;90.53
73516;BME280;61763;51.416;5.442;2022-12-18T14:25:26;102202.28;;;-1.30;91.04
73516;BME280;61763;51.416;5.442;2022-12-18T14:30:36;102205.66;;;-1.38;90.53
73516;BME280;61763;51.416;5.442;2022-12-18T14:33:09;102204.97;;;-1.28;90.38
73516;BME280;61763;51.416;5.442;2022-12-18T14:35:40;102201.41;;;-1.30;90.81
73516;BME280;61763;51.416;5.442;2022-12-18T14:40:42;102213.56;;;-1.40;91.49
73516;BME280;61763;51.416;5.442;2022-12-18T14:43:11;102202.06;;;-1.42;90.94
73516;BME280;61763;51.416;5.442;2022-12-18T14:45:42;102215.16;;;-1.48;91.36
73516;BME280;61763;51.416;5.442;2022-12-18T14:48:17;102210.69;;;-1.51;92.25
73516;BME280;61763;51.416;5.442;2022-12-18T14:50:45;102203.66;;;-1.49;92.13
73516;BME280;61763;51.416;5.442;2022-12-18T14:53:27;102199.19;;;-1.53;92.35
73516;BME280;61763;51.416;5.442;2022-12-18T14:55:55;102196.97;;;-1.31;91.00